createdAt,value
2016-05-22T00:00:03.497Z,71.5
2016-05-22T00:00:13.719Z,71.9
2016-05-22T00:00:23.672Z,72
2016-05-22T00:00:33.672Z,71.9
2016-05-22T00:00:43.688Z,71.6
2016-05-22T00:00:53.688Z,71.8
2016-05-22T00:01:03.704Z,72
2016-05-22T00:01:13.706Z,71.9
2016-05-22T00:01:23.721Z,71.9
2016-05-22T00:01:33.752Z,71.8
2016-05-22T00:01:43.737Z,71.7
2016-05-22T00:01:53.784Z,71.6
2016-05-22T00:02:03.737Z,71.8
2016-05-22T00:02:13.771Z,72.4
2016-05-22T00:02:23.755Z,72.2
2016-05-22T00:02:33.755Z,72.2
2016-05-22T00:02:43.771Z,72.1
2016-05-22T00:02:53.787Z,72.1
2016-05-22T00:03:03.771Z,72
2016-05-22T00:03:13.790Z,72.2
2016-05-22T00:03:23.805Z,72.6
2016-05-22T00:03:33.805Z,72.5
2016-05-22T00:03:43.805Z,72.6
2016-05-22T00:03:53.821Z,72.6
2016-05-22T00:04:03.868Z,72.1
2016-05-22T00:04:13.870Z,72.3
2016-05-22T00:04:23.854Z,72.3
2016-05-22T00:04:33.854Z,72.6
2016-05-22T00:04:43.870Z,72.5
2016-05-22T00:04:53.870Z,72.3
2016-05-22T00:05:03.854Z,72.5
2016-05-22T00:05:13.873Z,72.5
2016-05-22T00:05:23.920Z,72.4
2016-05-22T00:05:33.888Z,72.6
2016-05-22T00:05:43.888Z,72.8
2016-05-22T00:05:53.920Z,72.2
2016-05-22T00:06:03.920Z,72.8
2016-05-22T00:06:13.907Z,72.2
2016-05-22T00:06:23.938Z,72.2
2016-05-22T00:06:33.938Z,72.4
2016-05-22T00:06:43.954Z,72
2016-05-22T00:06:53.954Z,71.9
2016-05-22T00:07:03.954Z,72.1
2016-05-22T00:07:13.956Z,72.2
2016-05-22T00:07:24.050Z,72.3
2016-05-22T00:07:33.972Z,72.1
2016-05-22T00:07:43.831Z,72.3
2016-05-22T00:07:53.987Z,72.6
2016-05-22T00:08:04.003Z,72.3
2016-05-22T00:08:14.007Z,72.4
2016-05-22T00:08:23.851Z,72.5
2016-05-22T00:08:34.007Z,72.5
2016-05-22T00:08:44.022Z,72
2016-05-22T00:08:54.022Z,72
2016-05-22T00:09:04.038Z,72.5
2016-05-22T00:09:14.103Z,72.4
2016-05-22T00:09:24.056Z,72.5
2016-05-22T00:09:34.071Z,72.2
2016-05-22T00:09:44.087Z,72.2
2016-05-22T00:09:54.071Z,72.2
2016-05-22T00:10:04.087Z,72.3
2016-05-22T00:10:14.089Z,72.5
2016-05-22T00:10:23.964Z,71.8
2016-05-22T00:10:34.105Z,72.3
2016-05-22T00:10:44.105Z,72.2
2016-05-22T00:10:54.167Z,72.8
2016-05-22T00:11:04.120Z,72.8
2016-05-22T00:11:14.421Z,72.6
2016-05-22T00:11:24.140Z,72.6
2016-05-22T00:11:34.171Z,72.6
2016-05-22T00:11:44.202Z,72.3
2016-05-22T00:11:54.187Z,72.5
2016-05-22T00:12:04.171Z,72.1
2016-05-22T00:12:14.236Z,72.4
2016-05-22T00:12:24.048Z,72.1
2016-05-22T00:12:34.251Z,72.5
2016-05-22T00:12:44.204Z,72.7
2016-05-22T00:12:54.361Z,72.6
2016-05-22T00:13:04.064Z,72.6
2016-05-22T00:13:14.519Z,72.5
2016-05-22T00:13:24.253Z,72.3
2016-05-22T00:13:34.222Z,72.5
2016-05-22T00:13:44.253Z,72.5
2016-05-22T00:13:54.253Z,72.6
2016-05-22T00:14:04.253Z,72.3
2016-05-22T00:14:14.273Z,72.4
2016-05-22T00:14:24.367Z,72.8
2016-05-22T00:14:34.351Z,72.7
2016-05-22T00:14:44.288Z,72.2
2016-05-22T00:14:54.351Z,72.2
2016-05-22T00:15:04.320Z,72
2016-05-22T00:15:14.306Z,71.9
2016-05-22T00:15:24.306Z,72
2016-05-22T00:15:34.322Z,72.3
2016-05-22T00:15:44.322Z,72
2016-05-22T00:15:54.353Z,72.1
2016-05-22T00:16:04.337Z,72.2
2016-05-22T00:16:14.372Z,72.1
2016-05-22T00:16:24.356Z,72.1
2016-05-22T00:16:34.372Z,72.1
2016-05-22T00:16:44.387Z,72.4
2016-05-22T00:16:54.372Z,72.4
2016-05-22T00:17:04.372Z,71.8
2016-05-22T00:17:14.389Z,72.4
2016-05-22T00:17:24.389Z,72.3
2016-05-22T00:17:34.420Z,72.2
2016-05-22T00:17:44.264Z,72.4
2016-05-22T00:17:54.436Z,72.1
2016-05-22T00:18:04.420Z,72
2016-05-22T00:18:14.423Z,72.2
2016-05-22T00:18:24.439Z,72.1
2016-05-22T00:18:34.470Z,71.8
2016-05-22T00:18:44.455Z,72.7
2016-05-22T00:18:54.470Z,72.6
2016-05-22T00:19:04.455Z,72.6
2016-05-22T00:19:14.473Z,72.6
2016-05-22T00:19:24.489Z,72.6
2016-05-22T00:19:34.520Z,72.4
2016-05-22T00:19:44.489Z,72.4
2016-05-22T00:19:54.505Z,72.4
2016-05-22T00:20:04.505Z,72.6
2016-05-22T00:20:14.507Z,72.4
2016-05-22T00:20:24.522Z,71.8
2016-05-22T00:20:34.522Z,71.9
2016-05-22T00:20:44.522Z,71.9
2016-05-22T00:20:54.553Z,72.2
2016-05-22T00:21:04.553Z,72.2
2016-05-22T00:21:14.556Z,72.1
2016-05-22T00:21:24.572Z,72.1
2016-05-22T00:21:34.572Z,72.2
2016-05-22T00:21:44.588Z,72
2016-05-22T00:21:54.431Z,71.9
2016-05-22T00:22:04.635Z,71.8
2016-05-22T00:22:14.606Z,72.9
2016-05-22T00:22:24.606Z,72.6
2016-05-22T00:22:34.622Z,72.3
2016-05-22T00:22:44.622Z,72.2
2016-05-22T00:22:54.622Z,72.9
2016-05-22T00:23:04.638Z,72.8
2016-05-22T00:23:14.936Z,72.9
2016-05-22T00:23:24.655Z,72.3
2016-05-22T00:23:34.655Z,72.3
2016-05-22T00:23:44.671Z,72.3
2016-05-22T00:23:54.796Z,72.2
2016-05-22T00:24:04.686Z,72.7
2016-05-22T00:24:14.722Z,72.8
2016-05-22T00:24:24.737Z,73.3
2016-05-22T00:24:34.706Z,72.9
2016-05-22T00:24:44.737Z,73.1
2016-05-22T00:24:54.706Z,73.1
2016-05-22T00:25:04.722Z,73.1
2016-05-22T00:25:14.802Z,73.1
2016-05-22T00:25:24.802Z,72.9
2016-05-22T00:25:34.755Z,73
2016-05-22T00:25:44.755Z,72.9
2016-05-22T00:25:54.802Z,73.1
2016-05-22T00:26:04.755Z,73.2
2016-05-22T00:26:14.804Z,73.1
2016-05-22T00:26:24.773Z,72.9
2016-05-22T00:26:34.804Z,72.8
2016-05-22T00:26:44.788Z,72.7
2016-05-22T00:26:54.804Z,73
2016-05-22T00:27:04.804Z,73
2016-05-22T00:27:14.667Z,72.7
2016-05-22T00:27:24.823Z,72.8
2016-05-22T00:27:35.417Z,72.8
2016-05-22T00:27:44.683Z,73.2
2016-05-22T00:27:54.855Z,73.1
2016-05-22T00:28:04.714Z,73.7
2016-05-22T00:28:14.857Z,73.2
2016-05-22T00:28:24.716Z,73.3
2016-05-22T00:28:34.872Z,73.5
2016-05-22T00:28:44.904Z,73.3
2016-05-22T00:28:54.888Z,73.5
2016-05-22T00:29:04.888Z,73.7
2016-05-22T00:29:14.907Z,74
2016-05-22T00:29:24.922Z,73.7
2016-05-22T00:29:34.907Z,74.1
2016-05-22T00:29:44.953Z,74.2
2016-05-22T00:29:54.938Z,73.9
2016-05-22T00:30:04.922Z,74
2016-05-22T00:30:14.940Z,74.2
2016-05-22T00:30:24.955Z,74
2016-05-22T00:30:34.955Z,74.1
2016-05-22T00:30:44.971Z,74.1
2016-05-22T00:30:54.971Z,74.4
2016-05-22T00:31:05.002Z,74.4
2016-05-22T00:31:14.990Z,74.3
2016-05-22T00:31:25.021Z,74.4
2016-05-22T00:31:34.990Z,74.4
2016-05-22T00:31:45.068Z,74.3
2016-05-22T00:31:55.021Z,74.3
2016-05-22T00:32:05.021Z,74.4
2016-05-22T00:32:15.024Z,74.2
2016-05-22T00:32:25.040Z,74.4
2016-05-22T00:32:35.040Z,74.5
2016-05-22T00:32:45.055Z,74.4
2016-05-22T00:32:55.055Z,74.1
2016-05-22T00:33:05.102Z,73.9
2016-05-22T00:33:15.073Z,73.5
2016-05-22T00:33:25.073Z,73.7
2016-05-22T00:33:35.088Z,74
2016-05-22T00:33:45.088Z,74.1
2016-05-22T00:33:55.104Z,74.2
2016-05-22T00:34:05.104Z,74.2
2016-05-22T00:34:15.123Z,74.1
2016-05-22T00:34:25.170Z,74.3
2016-05-22T00:34:35.123Z,74.5
2016-05-22T00:34:45.138Z,74.6
2016-05-22T00:34:55.138Z,74.5
2016-05-22T00:35:05.170Z,74.3
2016-05-22T00:35:15.157Z,74.2
2016-05-22T00:35:25.157Z,74.3
2016-05-22T00:35:35.188Z,74.3
2016-05-22T00:35:45.173Z,74
2016-05-22T00:35:55.423Z,74.3
2016-05-22T00:36:05.188Z,74.3
2016-05-22T00:36:15.191Z,74
2016-05-22T00:36:25.207Z,74
2016-05-22T00:36:35.238Z,74.1
2016-05-22T00:36:45.222Z,74.1
2016-05-22T00:36:55.222Z,73.9
2016-05-22T00:37:05.238Z,73.8
2016-05-22T00:37:15.287Z,73.5
2016-05-22T00:37:25.256Z,73.6
2016-05-22T00:37:35.553Z,73.8
2016-05-22T00:37:45.271Z,73.7
2016-05-22T00:37:55.303Z,73.9
2016-05-22T00:38:05.271Z,73.9
2016-05-22T00:38:15.290Z,73.8
2016-05-22T00:38:25.290Z,73.9
2016-05-22T00:38:35.337Z,73.7
2016-05-22T00:38:45.306Z,73.8
2016-05-22T00:38:55.352Z,73.8
2016-05-22T00:39:05.306Z,73.6
2016-05-22T00:39:15.355Z,73.9
2016-05-22T00:39:25.340Z,74.1
2016-05-22T00:39:35.371Z,74.1
2016-05-22T00:39:45.371Z,74.1
2016-05-22T00:39:55.355Z,73.9
2016-05-22T00:40:05.355Z,73.9
2016-05-22T00:40:15.404Z,74.2
2016-05-22T00:40:25.373Z,74.2
2016-05-22T00:40:35.389Z,73.7
2016-05-22T00:40:45.389Z,74.2
2016-05-22T00:40:55.436Z,73.8
2016-05-22T00:41:05.389Z,74
2016-05-22T00:41:15.407Z,74
2016-05-22T00:41:25.407Z,74
2016-05-22T00:41:35.423Z,73.8
2016-05-22T00:41:45.470Z,73.9
2016-05-22T00:41:55.282Z,73.8
2016-05-22T00:42:05.439Z,73.9
2016-05-22T00:42:15.488Z,73.6
2016-05-22T00:42:25.738Z,74
2016-05-22T00:42:36.067Z,73.7
2016-05-22T00:42:45.317Z,73.9
2016-05-22T00:42:55.504Z,74
2016-05-22T00:43:05.957Z,73.9
2016-05-22T00:43:15.490Z,74
2016-05-22T00:43:25.522Z,74
2016-05-22T00:43:35.506Z,73.8
2016-05-22T00:43:45.537Z,73.7
2016-05-22T00:43:55.522Z,74.1
2016-05-22T00:44:05.522Z,74
2016-05-22T00:44:15.541Z,74.3
2016-05-22T00:44:25.604Z,74.4
2016-05-22T00:44:35.557Z,74.4
2016-05-22T00:44:45.588Z,74.1
2016-05-22T00:44:55.573Z,74.3
2016-05-22T00:45:05.651Z,74.3
2016-05-22T00:45:15.575Z,74.3
2016-05-22T00:45:25.590Z,74.5
2016-05-22T00:45:35.590Z,74.3
2016-05-22T00:45:45.637Z,74.5
2016-05-22T00:45:55.621Z,74.2
2016-05-22T00:46:05.606Z,74.2
2016-05-22T00:46:15.623Z,74.1
2016-05-22T00:46:25.655Z,74.4
2016-05-22T00:46:35.639Z,74.5
2016-05-22T00:46:45.639Z,74.2
2016-05-22T00:46:55.639Z,74.1
2016-05-22T00:47:05.655Z,74.5
2016-05-22T00:47:15.659Z,75.1
2016-05-22T00:47:25.659Z,74.7
2016-05-22T00:47:35.674Z,75
2016-05-22T00:47:45.690Z,74.9
2016-05-22T00:47:55.706Z,75
2016-05-22T00:48:05.690Z,75.2
2016-05-22T00:48:15.708Z,75.3
2016-05-22T00:48:25.708Z,75.1
2016-05-22T00:48:35.754Z,75
2016-05-22T00:48:45.723Z,74.9
2016-05-22T00:48:55.754Z,75
2016-05-22T00:49:05.723Z,74.2
2016-05-22T00:49:15.756Z,74.6
2016-05-22T00:49:25.772Z,74.4
2016-05-22T00:49:35.772Z,74.4
2016-05-22T00:49:45.788Z,74.5
2016-05-22T00:49:55.772Z,74.3
2016-05-22T00:50:05.772Z,74.1
2016-05-22T00:50:15.838Z,74
2016-05-22T00:50:25.806Z,74.2
2016-05-22T00:50:35.806Z,74
2016-05-22T00:50:45.806Z,74
2016-05-22T00:50:55.884Z,74.3
2016-05-22T00:51:05.822Z,74.3
2016-05-22T00:51:15.841Z,74.3
2016-05-22T00:51:25.841Z,74.5
2016-05-22T00:51:35.856Z,74.4
2016-05-22T00:51:45.856Z,74.3
2016-05-22T00:51:55.841Z,74.4
2016-05-22T00:52:05.856Z,74.3
2016-05-22T00:52:15.922Z,74.3
2016-05-22T00:52:25.875Z,74.3
2016-05-22T00:52:35.906Z,74.2
2016-05-22T00:52:45.890Z,74.3
2016-05-22T00:52:55.906Z,74.4
2016-05-22T00:53:05.922Z,74.2
2016-05-22T00:53:15.908Z,74.5
2016-05-22T00:53:25.939Z,75.1
2016-05-22T00:53:35.939Z,74.7
2016-05-22T00:53:45.939Z,75.1
2016-05-22T00:53:55.955Z,74.8
2016-05-22T00:54:05.955Z,75
2016-05-22T00:54:15.974Z,75
2016-05-22T00:54:25.989Z,75
2016-05-22T00:54:35.974Z,74.8
2016-05-22T00:54:45.974Z,74.9
2016-05-22T00:54:55.927Z,74.9
2016-05-22T00:55:06.005Z,74.9
2016-05-22T00:55:16.008Z,74.8
2016-05-22T00:55:26.023Z,74.9
2016-05-22T00:55:36.008Z,75.2
2016-05-22T00:55:46.023Z,75.3
2016-05-22T00:55:56.039Z,75.1
2016-05-22T00:56:06.039Z,75.2
2016-05-22T00:56:16.057Z,75.1
2016-05-22T00:56:26.057Z,75.2
2016-05-22T00:56:36.057Z,75.1
2016-05-22T00:56:46.057Z,75.2
2016-05-22T00:56:55.932Z,75.2
2016-05-22T00:57:05.916Z,75.1
2016-05-22T00:57:15.935Z,74.7
2016-05-22T00:57:26.216Z,75.3
2016-05-22T00:57:36.091Z,75.1
2016-05-22T00:57:46.278Z,75.1
2016-05-22T00:57:56.138Z,75
2016-05-22T00:58:06.169Z,74.8
2016-05-22T00:58:16.125Z,74.9
2016-05-22T00:58:26.141Z,75
2016-05-22T00:58:36.141Z,74.6
2016-05-22T00:58:46.156Z,74.2
2016-05-22T00:58:56.188Z,74.1
2016-05-22T00:59:06.172Z,74.3
2016-05-22T00:59:16.175Z,74.6
2016-05-22T00:59:26.175Z,74.4
2016-05-22T00:59:36.191Z,74.4
2016-05-22T00:59:46.191Z,75
2016-05-22T00:59:56.191Z,75
2016-05-22T01:00:06.206Z,74.9
2016-05-22T01:00:16.224Z,74.8
2016-05-22T01:00:26.224Z,74.7
2016-05-22T01:00:36.224Z,75
2016-05-22T01:00:46.224Z,74.8
2016-05-22T01:00:56.240Z,74.9
2016-05-22T01:01:06.240Z,75
2016-05-22T01:01:16.274Z,74.9
2016-05-22T01:01:26.289Z,74.9
2016-05-22T01:01:36.258Z,74.7
2016-05-22T01:01:46.274Z,74.8
2016-05-22T01:01:56.274Z,74.8
2016-05-22T01:02:06.305Z,75.3
2016-05-22T01:02:16.291Z,75.2
2016-05-22T01:02:26.323Z,75.1
2016-05-22T01:02:36.307Z,75.2
2016-05-22T01:02:46.338Z,74.7
2016-05-22T01:02:56.323Z,74.8
2016-05-22T01:03:06.338Z,75
2016-05-22T01:03:16.341Z,75.1
2016-05-22T01:03:26.357Z,75
2016-05-22T01:03:36.357Z,74.9
2016-05-22T01:03:46.357Z,74.8
2016-05-22T01:03:56.357Z,74.7
2016-05-22T01:04:06.404Z,74.9
2016-05-22T01:04:16.376Z,75
2016-05-22T01:04:26.407Z,74.5
2016-05-22T01:04:36.422Z,74.2
2016-05-22T01:04:46.266Z,74.3
2016-05-22T01:04:56.454Z,74.4
2016-05-22T01:05:06.407Z,74.4
2016-05-22T01:05:16.424Z,75
2016-05-22T01:05:26.456Z,74.9
2016-05-22T01:05:36.440Z,74.4
2016-05-22T01:05:46.440Z,74.4
2016-05-22T01:05:56.456Z,74.4
2016-05-22T01:06:06.456Z,74.5
2016-05-22T01:06:16.490Z,74.2
2016-05-22T01:06:26.474Z,74.5
2016-05-22T01:06:36.474Z,74.5
2016-05-22T01:06:46.318Z,74.8
2016-05-22T01:06:56.490Z,74.3
2016-05-22T01:07:06.490Z,74.2
2016-05-22T01:07:16.509Z,74.5
2016-05-22T01:07:26.509Z,74.4
2016-05-22T01:07:36.509Z,74.9
2016-05-22T01:07:46.524Z,75.1
2016-05-22T01:07:56.540Z,75
2016-05-22T01:08:06.540Z,75
2016-05-22T01:08:16.574Z,74.9
2016-05-22T01:08:26.558Z,74.9
2016-05-22T01:08:36.558Z,74.9
2016-05-22T01:08:46.574Z,74.7
2016-05-22T01:08:56.605Z,75.4
2016-05-22T01:09:06.605Z,75.2
2016-05-22T01:09:16.623Z,75.2
2016-05-22T01:09:26.607Z,75.2
2016-05-22T01:09:36.607Z,75.1
2016-05-22T01:09:46.467Z,75.1
2016-05-22T01:09:56.623Z,75.1
2016-05-22T01:10:06.623Z,75.1
2016-05-22T01:10:16.626Z,75.2
2016-05-22T01:10:26.642Z,75.3
2016-05-22T01:10:36.642Z,75.2
2016-05-22T01:10:46.642Z,75.2
2016-05-22T01:10:56.704Z,75.3
2016-05-22T01:11:06.657Z,75.4
2016-05-22T01:11:16.676Z,75.3
2016-05-22T01:11:26.676Z,75.2
2016-05-22T01:11:36.691Z,75.2
2016-05-22T01:11:46.691Z,75.3
2016-05-22T01:11:56.707Z,75.5
2016-05-22T01:12:06.707Z,75
2016-05-22T01:12:16.725Z,74.9
2016-05-22T01:12:26.600Z,75.2
2016-05-22T01:12:37.037Z,74.9
2016-05-22T01:12:46.740Z,74.9
2016-05-22T01:12:56.756Z,75.5
2016-05-22T01:13:06.756Z,75.3
2016-05-22T01:13:16.759Z,75.5
2016-05-22T01:13:26.775Z,75.4
2016-05-22T01:13:36.790Z,75
2016-05-22T01:13:46.775Z,75.2
2016-05-22T01:13:56.806Z,75
2016-05-22T01:14:06.790Z,75.5
2016-05-22T01:14:16.809Z,75.1
2016-05-22T01:14:26.809Z,75.2
2016-05-22T01:14:36.840Z,75.2
2016-05-22T01:14:46.824Z,75.4
2016-05-22T01:14:56.840Z,74.8
2016-05-22T01:15:06.824Z,75.4
2016-05-22T01:15:16.889Z,75.6
2016-05-22T01:15:26.858Z,75.6
2016-05-22T01:15:36.858Z,75.9
2016-05-22T01:15:46.858Z,75.3
2016-05-22T01:15:56.905Z,75.5
2016-05-22T01:16:06.873Z,75.6
2016-05-22T01:16:16.877Z,75.2
2016-05-22T01:16:26.893Z,75.2
2016-05-22T01:16:36.893Z,75.5
2016-05-22T01:16:46.909Z,75.4
2016-05-22T01:16:56.909Z,76
2016-05-22T01:17:06.924Z,75.9
2016-05-22T01:17:16.942Z,75.9
2016-05-22T01:17:26.926Z,75.6
2016-05-22T01:17:36.942Z,75.6
2016-05-22T01:17:46.942Z,75.3
2016-05-22T01:17:56.957Z,75.7
2016-05-22T01:18:06.973Z,75.4
2016-05-22T01:18:16.975Z,75.3
2016-05-22T01:18:26.991Z,75.5
2016-05-22T01:18:36.975Z,75.5
2016-05-22T01:18:46.991Z,75.5
2016-05-22T01:18:56.991Z,75.4
2016-05-22T01:19:06.991Z,75.4
2016-05-22T01:19:17.025Z,75.6
2016-05-22T01:19:27.025Z,75.6
2016-05-22T01:19:37.025Z,75.8
2016-05-22T01:19:47.025Z,75.8
2016-05-22T01:19:57.041Z,76.1
2016-05-22T01:20:07.041Z,76.1
2016-05-22T01:20:17.059Z,75.7
2016-05-22T01:20:27.090Z,75.7
2016-05-22T01:20:37.059Z,75.8
2016-05-22T01:20:47.075Z,75.7
2016-05-22T01:20:57.090Z,75.8
2016-05-22T01:21:07.090Z,75.7
2016-05-22T01:21:17.109Z,76.2
2016-05-22T01:21:27.109Z,76.1
2016-05-22T01:21:37.109Z,76.1
2016-05-22T01:21:47.140Z,76.3
2016-05-22T01:21:57.140Z,75.9
2016-05-22T01:22:07.125Z,76
2016-05-22T01:22:16.987Z,76
2016-05-22T01:22:27.253Z,76.3
2016-05-22T01:22:37.143Z,75.9
2016-05-22T01:22:47.159Z,76
2016-05-22T01:22:57.159Z,76.2
2016-05-22T01:23:07.175Z,76
2016-05-22T01:23:17.192Z,76.3
2016-05-22T01:23:27.192Z,76.3
2016-05-22T01:23:37.192Z,76.3
2016-05-22T01:23:47.223Z,76.2
2016-05-22T01:23:57.208Z,76
2016-05-22T01:24:07.208Z,76.2
2016-05-22T01:24:17.055Z,76
2016-05-22T01:24:27.226Z,76
2016-05-22T01:24:37.242Z,76.3
2016-05-22T01:24:47.258Z,76.2
2016-05-22T01:24:57.258Z,75.9
2016-05-22T01:25:07.258Z,75.9
2016-05-22T01:25:17.260Z,75.8
2016-05-22T01:25:27.275Z,76
2016-05-22T01:25:37.275Z,75.9
2016-05-22T01:25:47.291Z,76.1
2016-05-22T01:25:57.400Z,76
2016-05-22T01:26:07.307Z,76.1
2016-05-22T01:26:17.325Z,75.9
2016-05-22T01:26:27.325Z,76
2016-05-22T01:26:37.388Z,76.1
2016-05-22T01:26:47.356Z,76
2016-05-22T01:26:57.341Z,75.9
2016-05-22T01:27:07.341Z,76.5
2016-05-22T01:27:17.406Z,76.4
2016-05-22T01:27:27.844Z,76.4
2016-05-22T01:27:37.406Z,76.3
2016-05-22T01:27:47.547Z,76.1
2016-05-22T01:27:57.422Z,76.7
2016-05-22T01:28:07.234Z,76.5
2016-05-22T01:28:17.486Z,76.6
2016-05-22T01:28:27.393Z,76.4
2016-05-22T01:28:37.471Z,76.2
2016-05-22T01:28:47.408Z,76.3
2016-05-22T01:28:57.455Z,76.2
2016-05-22T01:29:07.424Z,76.1
2016-05-22T01:29:17.427Z,76.1
2016-05-22T01:29:27.443Z,76
2016-05-22T01:29:37.458Z,76.5
2016-05-22T01:29:47.458Z,76.6
2016-05-22T01:29:57.489Z,76.6
2016-05-22T01:30:07.458Z,76.7
2016-05-22T01:30:17.476Z,76.6
2016-05-22T01:30:27.476Z,76.6
2016-05-22T01:30:37.491Z,76.6
2016-05-22T01:30:47.491Z,76.1
2016-05-22T01:30:57.507Z,76.3
2016-05-22T01:31:07.507Z,76.6
2016-05-22T01:31:17.510Z,76.5
2016-05-22T01:31:27.526Z,76.4
2016-05-22T01:31:37.557Z,76.5
2016-05-22T01:31:47.526Z,76.4
2016-05-22T01:31:57.557Z,76.4
2016-05-22T01:32:07.557Z,76.6
2016-05-22T01:32:17.560Z,76.1
2016-05-22T01:32:27.576Z,76.6
2016-05-22T01:32:37.576Z,76.8
2016-05-22T01:32:47.576Z,76.8
2016-05-22T01:32:57.435Z,76.8
2016-05-22T01:33:07.607Z,76.6
2016-05-22T01:33:17.594Z,76.8
2016-05-22T01:33:27.625Z,76.9
2016-05-22T01:33:37.610Z,76.5
2016-05-22T01:33:47.657Z,76.6
2016-05-22T01:33:57.625Z,76.6
2016-05-22T01:34:07.516Z,76.6
2016-05-22T01:34:17.643Z,76.7
2016-05-22T01:34:27.643Z,76.6
2016-05-22T01:34:37.659Z,76.6
2016-05-22T01:34:47.643Z,76.8
2016-05-22T01:34:57.674Z,76.6
2016-05-22T01:35:07.706Z,76.7
2016-05-22T01:35:17.677Z,76.6
2016-05-22T01:35:27.709Z,76.6
2016-05-22T01:35:37.709Z,76.8
2016-05-22T01:35:47.709Z,76.6
2016-05-22T01:35:57.709Z,76.8
2016-05-22T01:36:07.709Z,76.7
2016-05-22T01:36:17.727Z,76.6
2016-05-22T01:36:27.743Z,76.5
2016-05-22T01:36:37.743Z,76.7
2016-05-22T01:36:47.758Z,76.5
2016-05-22T01:36:57.758Z,76.6
2016-05-22T01:37:07.758Z,76.8
2016-05-22T01:37:17.761Z,76.6
2016-05-22T01:37:27.777Z,76.3
2016-05-22T01:37:37.777Z,77
2016-05-22T01:37:47.808Z,76.3
2016-05-22T01:37:57.793Z,76.8
2016-05-22T01:38:07.808Z,76.7
2016-05-22T01:38:17.888Z,76.9
2016-05-22T01:38:27.826Z,77.1
2016-05-22T01:38:37.826Z,77.2
2016-05-22T01:38:47.826Z,77
2016-05-22T01:38:57.685Z,77.2
2016-05-22T01:39:07.842Z,77.1
2016-05-22T01:39:18.157Z,77.4
2016-05-22T01:39:27.860Z,77.1
2016-05-22T01:39:37.876Z,77
2016-05-22T01:39:47.876Z,77
2016-05-22T01:39:57.891Z,77
2016-05-22T01:40:07.891Z,77.3
2016-05-22T01:40:17.972Z,77
2016-05-22T01:40:27.893Z,76.9
2016-05-22T01:40:37.909Z,77.2
2016-05-22T01:40:47.909Z,76.9
2016-05-22T01:40:57.972Z,77.2
2016-05-22T01:41:07.925Z,77.3
2016-05-22T01:41:17.929Z,77
2016-05-22T01:41:27.944Z,77.3
2016-05-22T01:41:37.960Z,77.7
2016-05-22T01:41:47.944Z,77.6
2016-05-22T01:41:57.976Z,77.8
2016-05-22T01:42:07.976Z,77.5
2016-05-22T01:42:18.071Z,77.6
2016-05-22T01:42:28.353Z,77.7
2016-05-22T01:42:38.493Z,77.5
2016-05-22T01:42:48.009Z,77.7
2016-05-22T01:42:58.024Z,77.5
2016-05-22T01:43:08.024Z,77.5
2016-05-22T01:43:18.012Z,77.7
2016-05-22T01:43:28.027Z,77.6
2016-05-22T01:43:38.074Z,77.6
2016-05-22T01:43:48.043Z,77.6
2016-05-22T01:43:58.043Z,77.7
2016-05-22T01:44:08.059Z,77.7
2016-05-22T01:44:18.076Z,77.5
2016-05-22T01:44:28.076Z,77.6
2016-05-22T01:44:38.076Z,77.7
2016-05-22T01:44:48.076Z,77.5
2016-05-22T01:44:58.092Z,77.5
2016-05-22T01:45:08.092Z,77.5
2016-05-22T01:45:18.095Z,77.4
2016-05-22T01:45:28.111Z,77.5
2016-05-22T01:45:38.017Z,77.5
2016-05-22T01:45:48.111Z,77.7
2016-05-22T01:45:58.126Z,77.6
2016-05-22T01:46:08.126Z,77.5
2016-05-22T01:46:18.051Z,77.7
2016-05-22T01:46:28.160Z,77.5
2016-05-22T01:46:38.160Z,77.7
2016-05-22T01:46:48.160Z,77.5
2016-05-22T01:46:58.176Z,77.5
2016-05-22T01:47:08.176Z,77.5
2016-05-22T01:47:18.195Z,78
2016-05-22T01:47:28.195Z,78.1
2016-05-22T01:47:38.195Z,78
2016-05-22T01:47:48.195Z,78.2
2016-05-22T01:47:58.210Z,77.9
2016-05-22T01:48:08.226Z,77.9
2016-05-22T01:48:18.228Z,77.9
2016-05-22T01:48:28.244Z,78
2016-05-22T01:48:38.244Z,78.1
2016-05-22T01:48:48.244Z,78.1
2016-05-22T01:48:58.259Z,78.1
2016-05-22T01:49:08.290Z,77.8
2016-05-22T01:49:18.278Z,77.8
2016-05-22T01:49:28.278Z,78
2016-05-22T01:49:38.340Z,78
2016-05-22T01:49:48.293Z,78
2016-05-22T01:49:58.309Z,77.8
2016-05-22T01:50:08.293Z,77.8
2016-05-22T01:50:18.312Z,78
2016-05-22T01:50:28.328Z,78
2016-05-22T01:50:38.171Z,77.7
2016-05-22T01:50:48.359Z,78.1
2016-05-22T01:50:58.343Z,78.1
2016-05-22T01:51:08.343Z,78.2
2016-05-22T01:51:18.361Z,78.1
2016-05-22T01:51:28.361Z,78
2016-05-22T01:51:38.361Z,77.9
2016-05-22T01:51:48.377Z,78.1
2016-05-22T01:51:58.377Z,78
2016-05-22T01:52:08.377Z,77.8
2016-05-22T01:52:18.395Z,77.9
2016-05-22T01:52:28.395Z,78
2016-05-22T01:52:38.411Z,77.9
2016-05-22T01:52:48.426Z,77.8
2016-05-22T01:52:58.426Z,78.2
2016-05-22T01:53:08.426Z,78.2
2016-05-22T01:53:18.428Z,77.7
2016-05-22T01:53:28.460Z,78.1
2016-05-22T01:53:38.444Z,77.9
2016-05-22T01:53:48.475Z,77.8
2016-05-22T01:53:58.475Z,77.8
2016-05-22T01:54:08.460Z,78.2
2016-05-22T01:54:18.495Z,78.1
2016-05-22T01:54:28.479Z,78.1
2016-05-22T01:54:38.479Z,78.2
2016-05-22T01:54:48.495Z,78
2016-05-22T01:54:58.511Z,78.1
2016-05-22T01:55:08.511Z,78.2
2016-05-22T01:55:18.513Z,78.6
2016-05-22T01:55:28.528Z,78.8
2016-05-22T01:55:38.544Z,78.9
2016-05-22T01:55:48.559Z,78.4
2016-05-22T01:55:58.544Z,78.1
2016-05-22T01:56:08.544Z,78.6
2016-05-22T01:56:18.562Z,79
2016-05-22T01:56:28.578Z,78.6
2016-05-22T01:56:38.578Z,78.6
2016-05-22T01:56:48.594Z,78.8
2016-05-22T01:56:58.594Z,78.8
2016-05-22T01:57:08.594Z,78.7
2016-05-22T01:57:18.471Z,78.6
2016-05-22T01:57:28.455Z,78.9
2016-05-22T01:57:39.033Z,78.6
2016-05-22T01:57:48.830Z,78.7
2016-05-22T01:57:58.643Z,78.9
2016-05-22T01:58:08.627Z,78.8
2016-05-22T01:58:18.646Z,78.8
2016-05-22T01:58:28.661Z,78.7
2016-05-22T01:58:38.661Z,78.2
2016-05-22T01:58:48.661Z,78.9
2016-05-22T01:58:58.692Z,78.9
2016-05-22T01:59:08.677Z,78.9
2016-05-22T01:59:18.680Z,78.8
2016-05-22T01:59:28.711Z,78.8
2016-05-22T01:59:38.617Z,78.2
2016-05-22T01:59:48.695Z,78.7
2016-05-22T01:59:58.727Z,78.7
2016-05-22T02:00:08.727Z,79.1
2016-05-22T02:00:18.730Z,78.4
2016-05-22T02:00:28.730Z,79.1
2016-05-22T02:00:38.745Z,79.2
2016-05-22T02:00:48.761Z,78.9
2016-05-22T02:00:58.605Z,78.7
2016-05-22T02:01:08.777Z,78.8
2016-05-22T02:01:18.779Z,78.6
2016-05-22T02:01:28.857Z,79
2016-05-22T02:01:38.779Z,79.2
2016-05-22T02:01:48.810Z,78.6
2016-05-22T02:01:58.794Z,79.1
2016-05-22T02:02:08.810Z,79
2016-05-22T02:02:18.813Z,79.2
2016-05-22T02:02:28.828Z,79.2
2016-05-22T02:02:38.828Z,78.6
2016-05-22T02:02:48.860Z,79.3
2016-05-22T02:02:58.844Z,78.8
2016-05-22T02:03:08.844Z,79.2
2016-05-22T02:03:18.846Z,79.2
2016-05-22T02:03:28.862Z,78.9
2016-05-22T02:03:38.705Z,79
2016-05-22T02:03:48.877Z,79.1
2016-05-22T02:03:58.877Z,78.9
2016-05-22T02:04:08.924Z,79.1
2016-05-22T02:04:18.897Z,79
2016-05-22T02:04:28.913Z,79.2
2016-05-22T02:04:38.897Z,79.2
2016-05-22T02:04:48.913Z,79.1
2016-05-22T02:04:58.944Z,79.3
2016-05-22T02:05:08.928Z,78.9
2016-05-22T02:05:18.930Z,78.8
2016-05-22T02:05:28.946Z,79
2016-05-22T02:05:38.946Z,79.1
2016-05-22T02:05:48.946Z,78.6
2016-05-22T02:05:59.274Z,79.2
2016-05-22T02:06:08.961Z,79.2
2016-05-22T02:06:18.995Z,79.2
2016-05-22T02:06:28.995Z,79
2016-05-22T02:06:39.010Z,78.7
2016-05-22T02:06:48.995Z,79.4
2016-05-22T02:06:58.995Z,79.4
2016-05-22T02:07:09.026Z,79.4
2016-05-22T02:07:19.467Z,79.1
2016-05-22T02:07:29.030Z,79.3
2016-05-22T02:07:39.046Z,79.3
2016-05-22T02:07:49.046Z,79.4
2016-05-22T02:07:59.139Z,79.1
2016-05-22T02:08:09.046Z,79.3
2016-05-22T02:08:19.063Z,79.2
2016-05-22T02:08:29.063Z,79.1
2016-05-22T02:08:39.094Z,79.4
2016-05-22T02:08:49.079Z,79.6
2016-05-22T02:08:59.094Z,79.4
2016-05-22T02:09:09.094Z,79.9
2016-05-22T02:09:19.144Z,79.7
2016-05-22T02:09:29.113Z,79.8
2016-05-22T02:09:39.113Z,79.6
2016-05-22T02:09:49.113Z,79.4
2016-05-22T02:09:58.988Z,79.8
2016-05-22T02:10:09.129Z,79.7
2016-05-22T02:10:19.146Z,79.5
2016-05-22T02:10:29.146Z,79.6
2016-05-22T02:10:39.146Z,79.4
2016-05-22T02:10:49.162Z,80
2016-05-22T02:10:59.224Z,79.6
2016-05-22T02:11:09.193Z,79.4
2016-05-22T02:11:19.181Z,79.6
2016-05-22T02:11:29.196Z,80.1
2016-05-22T02:11:39.196Z,80.1
2016-05-22T02:11:49.056Z,79.5
2016-05-22T02:11:59.212Z,79.4
2016-05-22T02:12:09.306Z,79.6
2016-05-22T02:12:19.637Z,79.7
2016-05-22T02:12:29.262Z,79.8
2016-05-22T02:12:39.246Z,79.9
2016-05-22T02:12:49.262Z,79.6
2016-05-22T02:12:59.762Z,79.9
2016-05-22T02:13:09.355Z,79.9
2016-05-22T02:13:19.280Z,79.9
2016-05-22T02:13:29.280Z,79.7
2016-05-22T02:13:39.280Z,79.9
2016-05-22T02:13:49.296Z,79.9
2016-05-22T02:13:59.280Z,79.6
2016-05-22T02:14:09.358Z,79.8